createdAt,value
2022-12-13T00:04:53.668Z,2.35
2022-12-13T00:07:41.286Z,2.90
2022-12-13T00:10:29.067Z,2.60
2022-12-13T00:13:16.783Z,2.67
2022-12-13T00:16:08.116Z,3.13
2022-12-13T00:18:58.608Z,2.10
2022-12-13T00:21:46.591Z,2.83
2022-12-13T00:24:34.245Z,2.70
2022-12-13T00:27:22.283Z,3.10
2022-12-13T00:30:10.201Z,2.63
2022-12-13T00:32:57.941Z,2.43
2022-12-13T00:35:46.191Z,4.23
2022-12-13T00:38:37.015Z,3.13
2022-12-13T00:41:24.628Z,2.88
2022-12-13T00:44:13.443Z,2.83
2022-12-13T00:47:01.163Z,3.00
2022-12-13T00:49:48.811Z,3.23
2022-12-13T00:52:36.776Z,2.37
2022-12-13T00:55:24.455Z,2.33
2022-12-13T00:58:12.106Z,2.50
2022-12-13T01:01:05.234Z,2.57
2022-12-13T01:03:58.557Z,3.57
2022-12-13T01:06:50.118Z,2.17
2022-12-13T01:09:39.788Z,2.15
2022-12-13T01:12:27.592Z,2.63
2022-12-13T01:15:17.855Z,2.90
2022-12-13T01:18:12.278Z,1.83
2022-12-13T01:21:05.392Z,1.85
2022-12-13T01:23:53.179Z,2.88
2022-12-13T01:26:40.872Z,2.83
2022-12-13T01:29:28.778Z,2.00
2022-12-13T01:32:16.534Z,2.45
2022-12-13T01:35:04.372Z,2.13
2022-12-13T01:37:52.030Z,2.30
2022-12-13T01:40:58.777Z,2.35
2022-12-13T01:43:47.256Z,2.17
2022-12-13T01:46:36.352Z,1.92
2022-12-13T01:49:24.152Z,1.77
2022-12-13T01:52:15.489Z,2.42
2022-12-13T01:55:07.712Z,3.17
2022-12-13T02:00:48.114Z,2.58
2022-12-13T02:03:36.130Z,1.80
2022-12-13T02:06:33.065Z,2.78
2022-12-13T02:09:21.220Z,2.03
2022-12-13T02:12:09.008Z,2.47
2022-12-13T02:15:00.766Z,2.22
2022-12-13T02:18:17.979Z,2.25
2022-12-13T02:21:30.254Z,2.08
2022-12-13T02:24:36.646Z,1.95
2022-12-13T02:27:46.050Z,1.67
2022-12-13T02:30:49.379Z,2.00
2022-12-13T02:33:50.693Z,2.10
2022-12-13T02:36:38.320Z,2.90
2022-12-13T02:39:39.719Z,2.90
2022-12-13T02:42:40.014Z,2.50
2022-12-13T02:45:40.408Z,2.57
2022-12-13T02:48:32.894Z,2.60
2022-12-13T02:51:22.338Z,2.07
2022-12-13T02:54:10.225Z,2.53
2022-12-13T02:56:59.824Z,2.30
2022-12-13T02:59:47.584Z,2.07
2022-12-13T03:02:58.720Z,2.10
2022-12-13T03:06:13.414Z,2.27
2022-12-13T03:09:31.587Z,2.53
2022-12-13T03:12:54.599Z,2.53
2022-12-13T03:16:14.649Z,2.53
2022-12-13T03:19:12.450Z,1.87
2022-12-13T03:22:00.213Z,2.40
2022-12-13T03:24:47.953Z,2.33
2022-12-13T03:27:35.722Z,2.80
2022-12-13T03:30:23.335Z,2.43
2022-12-13T03:33:11.137Z,2.93
2022-12-13T03:35:59.594Z,2.73
2022-12-13T03:38:49.050Z,3.20
2022-12-13T03:41:36.893Z,2.50
2022-12-13T03:44:24.628Z,2.50
2022-12-13T03:47:19.401Z,2.73
2022-12-13T03:50:25.592Z,2.33
2022-12-13T03:53:23.231Z,2.50
2022-12-13T03:56:20.692Z,2.13
2022-12-13T03:59:08.471Z,2.40
2022-12-13T04:01:56.212Z,2.67
2022-12-13T04:04:43.963Z,2.77
2022-12-13T04:07:34.195Z,3.47
2022-12-13T04:10:26.371Z,2.73
2022-12-13T04:13:32.688Z,1.83
2022-12-13T04:16:21.019Z,2.17
2022-12-13T04:19:08.698Z,2.50
2022-12-13T04:21:56.492Z,3.97
2022-12-13T04:24:44.294Z,2.97
2022-12-13T04:27:32.001Z,3.33
2022-12-13T04:30:19.916Z,3.17
2022-12-13T04:33:07.528Z,2.70
2022-12-13T04:35:55.141Z,5.80
2022-12-13T04:38:42.786Z,4.40
2022-12-13T04:41:35.325Z,4.50
2022-12-13T04:44:28.277Z,3.97
2022-12-13T04:47:20.955Z,3.10
2022-12-13T04:50:08.815Z,2.97
2022-12-13T04:52:56.525Z,2.77
2022-12-13T04:55:44.132Z,3.83
2022-12-13T04:58:32.263Z,3.53
2022-12-13T05:01:23.055Z,5.73
2022-12-13T05:04:10.786Z,5.97
2022-12-13T05:06:58.425Z,2.93
2022-12-13T05:09:46.281Z,3.57
2022-12-13T05:12:33.942Z,3.50
2022-12-13T05:15:21.605Z,3.87
2022-12-13T05:18:11.722Z,3.17
2022-12-13T05:21:07.121Z,2.87
2022-12-13T05:23:55.036Z,3.17
2022-12-13T05:26:45.683Z,2.60
2022-12-13T05:29:33.351Z,2.80
2022-12-13T05:32:21.094Z,2.67
2022-12-13T05:35:08.960Z,4.20
2022-12-13T05:37:56.701Z,3.50
2022-12-13T05:40:44.936Z,3.33
2022-12-13T05:43:42.986Z,3.80
2022-12-13T05:46:33.475Z,3.80
2022-12-13T05:49:23.246Z,4.63
2022-12-13T05:52:21.931Z,3.43
2022-12-13T05:55:18.753Z,3.33
2022-12-13T05:58:06.767Z,3.97
2022-12-13T06:01:09.386Z,2.63
2022-12-13T06:03:57.069Z,3.13
2022-12-13T06:06:44.748Z,2.90
2022-12-13T06:09:33.360Z,3.77
2022-12-13T06:12:31.655Z,4.40
2022-12-13T06:15:21.701Z,2.77
2022-12-13T06:18:10.399Z,4.17
2022-12-13T06:21:00.577Z,4.00
2022-12-13T06:23:51.155Z,4.63
2022-12-13T06:26:38.873Z,4.73
2022-12-13T06:29:26.996Z,4.23
2022-12-13T06:32:14.709Z,3.53
2022-12-13T06:35:02.415Z,4.33
2022-12-13T06:38:11.919Z,3.10
2022-12-13T06:41:15.098Z,3.70
2022-12-13T06:44:02.863Z,3.43
2022-12-13T06:46:50.509Z,3.37
2022-12-13T06:49:38.279Z,3.97
2022-12-13T06:52:26.143Z,3.33
2022-12-13T06:55:14.393Z,2.37
2022-12-13T06:58:02.105Z,3.70
2022-12-13T07:00:49.822Z,4.43
2022-12-13T07:03:37.621Z,3.70
2022-12-13T07:06:27.453Z,3.70
2022-12-13T07:09:16.623Z,3.53
2022-12-13T07:12:04.974Z,4.40
2022-12-13T07:14:56.271Z,2.83
2022-12-13T07:17:44.362Z,2.97
2022-12-13T07:20:32.024Z,4.47
2022-12-13T07:23:24.434Z,4.80
2022-12-13T07:26:12.411Z,4.67
2022-12-13T07:29:00.381Z,4.63
2022-12-13T07:31:48.087Z,5.60
2022-12-13T07:34:36.073Z,5.07
2022-12-13T07:37:30.174Z,5.93
2022-12-13T07:40:18.815Z,9.80
2022-12-13T07:43:07.321Z,11.27
2022-12-13T07:45:55.313Z,6.15
2022-12-13T07:48:43.081Z,8.00
2022-12-13T07:51:30.873Z,3.85
2022-12-13T07:54:18.671Z,3.33
2022-12-13T07:57:06.262Z,3.92
2022-12-13T07:59:54.073Z,5.15
2022-12-13T08:02:42.152Z,4.70
2022-12-13T08:05:29.870Z,4.32
2022-12-13T08:08:30.772Z,3.28
2022-12-13T08:11:19.308Z,2.40
2022-12-13T08:14:10.290Z,3.42
2022-12-13T08:16:58.316Z,3.78
2022-12-13T08:19:46.066Z,4.38
2022-12-13T08:22:35.916Z,5.07
2022-12-13T08:25:24.606Z,4.00
2022-12-13T08:28:12.317Z,2.15
2022-12-13T08:31:09.023Z,2.78
2022-12-13T08:33:57.536Z,2.63
2022-12-13T08:36:45.204Z,2.58
2022-12-13T08:39:35.750Z,3.17
2022-12-13T08:42:25.453Z,2.60
2022-12-13T08:45:13.157Z,3.35
2022-12-13T08:48:02.168Z,2.50
2022-12-13T08:50:50.607Z,2.10
2022-12-13T08:53:41.143Z,2.72
2022-12-13T08:56:29.343Z,3.38
2022-12-13T08:59:17.221Z,3.20
2022-12-13T09:02:05.452Z,2.70
2022-12-13T09:04:53.468Z,5.55
2022-12-13T09:07:43.263Z,4.53
2022-12-13T09:10:38.309Z,3.40
2022-12-13T09:13:31.832Z,3.03
2022-12-13T09:16:25.092Z,2.35
2022-12-13T09:19:25.581Z,3.00
2022-12-13T09:22:14.863Z,2.58
2022-12-13T09:25:05.114Z,2.67
2022-12-13T09:27:54.165Z,2.17
2022-12-13T09:30:45.754Z,2.30
2022-12-13T09:33:40.942Z,3.00
2022-12-13T09:36:29.465Z,2.75
2022-12-13T09:39:20.293Z,2.58
2022-12-13T09:42:18.943Z,3.13
2022-12-13T09:45:22.557Z,2.53
2022-12-13T09:48:23.252Z,2.92
2022-12-13T09:51:28.403Z,4.15
2022-12-13T09:54:21.504Z,2.60
2022-12-13T09:57:30.939Z,3.17
2022-12-13T10:00:26.145Z,2.90
2022-12-13T10:03:21.292Z,2.58
2022-12-13T10:06:23.695Z,2.67
2022-12-13T10:09:14.525Z,2.65
2022-12-13T10:12:02.219Z,2.30
2022-12-13T10:15:01.655Z,2.22
2022-12-13T10:17:54.862Z,1.98
2022-12-13T10:20:50.552Z,3.15
2022-12-13T10:24:07.267Z,2.72
2022-12-13T10:26:50.241Z,2.65
2022-12-13T10:30:07.264Z,2.25
2022-12-13T10:32:59.169Z,2.60
2022-12-13T10:36:03.149Z,2.15
2022-12-13T10:38:56.352Z,2.67
2022-12-13T10:42:03.601Z,2.80
2022-12-13T10:45:23.763Z,2.63
2022-12-13T10:48:23.816Z,2.67
2022-12-13T10:51:18.036Z,2.20
2022-12-13T10:54:12.746Z,2.65
2022-12-13T10:57:01.148Z,2.83
2022-12-13T10:59:53.160Z,2.60
2022-12-13T11:02:41.926Z,2.83
2022-12-13T11:05:35.143Z,2.58
2022-12-13T11:08:28.680Z,3.58
2022-12-13T11:11:20.250Z,2.90
2022-12-13T11:14:18.762Z,3.93
2022-12-13T11:17:24.796Z,3.90
2022-12-13T11:20:24.209Z,3.13
2022-12-13T11:23:34.788Z,4.20
2022-12-13T11:26:25.661Z,4.07
2022-12-13T11:29:48.400Z,3.85
2022-12-13T11:32:43.191Z,4.05
2022-12-13T11:35:59.425Z,3.80
2022-12-13T11:39:17.435Z,3.60
2022-12-13T11:42:08.043Z,3.70
2022-12-13T11:45:30.729Z,2.00
2022-12-13T11:48:34.284Z,2.25
2022-12-13T11:51:41.206Z,2.28
2022-12-13T11:54:42.607Z,2.75
2022-12-13T11:57:52.157Z,3.28
2022-12-13T12:00:50.835Z,1.85
2022-12-13T12:04:12.316Z,2.38
2022-12-13T12:07:31.272Z,3.72
2022-12-13T12:10:47.379Z,3.10
2022-12-13T12:13:51.638Z,2.95
2022-12-13T12:16:46.792Z,1.75
2022-12-13T12:19:38.356Z,2.80
2022-12-13T12:22:56.366Z,2.22
2022-12-13T12:26:08.754Z,2.95
2022-12-13T12:29:01.523Z,2.60
2022-12-13T12:32:11.275Z,2.67
2022-12-13T12:35:46.383Z,2.80
2022-12-13T12:38:46.379Z,2.80
2022-12-13T12:42:26.160Z,2.78
2022-12-13T12:45:55.819Z,3.25
2022-12-13T12:49:15.014Z,3.15
2022-12-13T12:52:27.109Z,2.67
2022-12-13T12:55:43.988Z,3.38
2022-12-13T12:59:00.694Z,2.83
2022-12-13T13:02:17.777Z,2.03
2022-12-13T13:05:31.361Z,2.47
2022-12-13T13:08:36.658Z,2.63
2022-12-13T13:11:26.614Z,3.78
2022-12-13T13:14:35.097Z,2.88
2022-12-13T13:17:25.881Z,3.45
2022-12-13T13:20:26.486Z,3.00
2022-12-13T13:23:40.051Z,3.33
2022-12-13T13:26:35.991Z,2.97
2022-12-13T13:29:28.361Z,2.42
2022-12-13T13:32:29.544Z,2.67
2022-12-13T13:35:38.201Z,2.92
2022-12-13T13:38:49.170Z,4.57
2022-12-13T13:41:40.971Z,6.43
2022-12-13T13:45:14.788Z,6.97
2022-12-13T13:48:37.890Z,3.85
2022-12-13T13:52:16.709Z,2.80
2022-12-13T13:55:11.907Z,4.30
2022-12-13T13:58:21.700Z,3.80
2022-12-13T14:01:40.799Z,10.25
2022-12-13T14:04:38.916Z,11.82
2022-12-13T14:07:53.707Z,12.70
2022-12-13T14:10:57.306Z,12.05
2022-12-13T14:14:39.057Z,10.13
2022-12-13T14:17:54.052Z,6.35
2022-12-13T14:20:47.964Z,5.60
2022-12-13T14:24:00.336Z,5.32
2022-12-13T14:27:42.196Z,7.05
2022-12-13T14:30:30.165Z,8.43
2022-12-13T14:33:28.473Z,6.80
2022-12-13T14:36:18.660Z,9.55
2022-12-13T14:39:24.788Z,8.93
2022-12-13T14:42:36.107Z,10.43
2022-12-13T14:45:29.902Z,8.40
2022-12-13T14:48:27.973Z,9.88
2022-12-13T14:51:33.046Z,10.63
2022-12-13T14:54:26.041Z,9.13
2022-12-13T14:57:18.462Z,9.45
2022-12-13T15:00:34.903Z,21.92
2022-12-13T15:03:26.011Z,21.00
2022-12-13T15:06:14.157Z,18.90
2022-12-13T15:09:02.109Z,15.65
2022-12-13T15:11:51.924Z,14.90
2022-12-13T15:14:43.634Z,15.60
2022-12-13T15:17:37.713Z,17.15
2022-12-13T15:20:31.999Z,18.20
2022-12-13T15:23:31.556Z,17.80
2022-12-13T15:26:28.964Z,17.92
2022-12-13T15:29:22.573Z,21.05
2022-12-13T15:32:16.828Z,20.10
2022-12-13T15:35:16.990Z,24.20
2022-12-13T15:38:05.079Z,22.55
2022-12-13T15:40:52.757Z,22.25
2022-12-13T15:43:48.945Z,23.95
2022-12-13T15:46:40.439Z,26.65
2022-12-13T15:49:28.277Z,30.13
2022-12-13T15:52:16.185Z,27.75
2022-12-13T15:55:08.567Z,29.05
2022-12-13T15:57:58.881Z,35.10
2022-12-13T16:00:49.358Z,39.95
2022-12-13T16:03:45.047Z,61.40
2022-12-13T16:06:34.104Z,67.30
2022-12-13T16:09:25.670Z,67.30
2022-12-13T16:12:29.324Z,74.20
2022-12-13T16:15:29.466Z,61.70
2022-12-13T16:18:47.957Z,56.70
2022-12-13T16:21:36.529Z,59.80
2022-12-13T16:24:24.389Z,53.42
2022-12-13T16:27:12.168Z,42.67
2022-12-13T16:30:01.074Z,50.22
2022-12-13T16:36:02.421Z,42.30
2022-12-13T16:38:52.590Z,41.42
2022-12-13T16:41:46.151Z,37.85
2022-12-13T16:44:37.829Z,30.85
2022-12-13T16:47:40.305Z,23.27
2022-12-13T16:50:34.340Z,20.23
2022-12-13T16:53:22.817Z,19.00
2022-12-13T16:56:14.671Z,17.10
2022-12-13T16:59:02.428Z,18.30
2022-12-13T17:01:59.814Z,18.98
2022-12-13T17:04:50.382Z,22.40
2022-12-13T17:07:38.039Z,18.98
2022-12-13T17:10:26.431Z,20.25
2022-12-13T17:13:14.081Z,20.38
2022-12-13T17:16:05.281Z,22.65
2022-12-13T17:18:56.008Z,25.05
2022-12-13T17:21:49.196Z,26.33
2022-12-13T17:24:38.718Z,28.83
2022-12-13T17:27:29.185Z,33.50
2022-12-13T17:30:21.204Z,31.23
2022-12-13T17:33:10.330Z,28.08
2022-12-13T17:36:04.433Z,25.67
2022-12-13T17:41:57.497Z,30.23
2022-12-13T17:44:46.651Z,29.88
2022-12-13T17:47:38.436Z,33.92
2022-12-13T17:50:29.365Z,32.00
2022-12-13T17:53:17.035Z,59.47
2022-12-13T17:56:09.253Z,44.03
2022-12-13T17:58:58.096Z,41.20
2022-12-13T18:01:46.901Z,33.88
2022-12-13T18:04:34.555Z,36.28
2022-12-13T18:07:22.386Z,42.75
2022-12-13T18:10:10.458Z,39.05
2022-12-13T18:13:02.032Z,39.63
2022-12-13T18:15:50.109Z,41.17
2022-12-13T18:18:38.174Z,39.25
2022-12-13T18:21:27.208Z,39.83
2022-12-13T18:24:15.199Z,37.70
2022-12-13T18:27:02.871Z,42.38
2022-12-13T18:29:55.533Z,40.05
2022-12-13T18:32:43.463Z,38.22
2022-12-13T18:35:31.845Z,33.42
2022-12-13T18:38:19.542Z,30.02
2022-12-13T18:41:15.221Z,25.35
2022-12-13T18:44:05.533Z,25.88
2022-12-13T18:46:53.362Z,22.85
2022-12-13T18:49:41.077Z,20.88
2022-12-13T18:52:28.828Z,20.23
2022-12-13T18:55:16.473Z,25.13
2022-12-13T18:58:04.604Z,20.25
2022-12-13T19:00:52.424Z,24.08
2022-12-13T19:03:40.921Z,74.28
2022-12-13T19:06:31.794Z,50.72
2022-12-13T19:09:19.723Z,24.60
2022-12-13T19:12:07.425Z,21.25
2022-12-13T19:15:17.170Z,21.30
2022-12-13T19:18:07.407Z,23.77
2022-12-13T19:20:55.666Z,18.67
2022-12-13T19:23:43.534Z,21.73
2022-12-13T19:26:32.146Z,21.35
2022-12-13T19:29:21.181Z,31.92
2022-12-13T19:32:09.465Z,86.13
2022-12-13T19:34:57.182Z,26.73
2022-12-13T19:37:46.091Z,24.73
2022-12-13T19:40:38.270Z,27.05
2022-12-13T19:46:14.593Z,17.10
2022-12-13T19:49:02.531Z,20.60
2022-12-13T19:51:50.122Z,43.88
2022-12-13T19:54:37.909Z,22.25
2022-12-13T19:57:26.419Z,16.48
2022-12-13T20:00:14.779Z,16.73
2022-12-13T20:03:02.476Z,10.98
2022-12-13T20:06:00.678Z,9.25
2022-12-13T20:08:49.083Z,14.07
2022-12-13T20:11:36.988Z,19.52
2022-12-13T20:14:25.091Z,15.68
2022-12-13T20:17:12.949Z,12.93
2022-12-13T20:20:00.699Z,14.05
2022-12-13T20:22:48.810Z,15.20
2022-12-13T20:25:36.526Z,16.52
2022-12-13T20:28:24.452Z,13.55
2022-12-13T20:31:21.884Z,14.15
2022-12-13T20:34:14.542Z,14.18
2022-12-13T20:37:02.280Z,12.02
2022-12-13T20:39:56.066Z,12.57
2022-12-13T20:42:46.820Z,11.52
2022-12-13T20:45:34.433Z,12.20
2022-12-13T20:48:34.026Z,12.27
2022-12-13T20:51:28.123Z,11.00
2022-12-13T20:54:15.897Z,13.32
2022-12-13T20:57:03.728Z,11.07
2022-12-13T20:59:51.732Z,9.55
2022-12-13T21:02:39.547Z,7.88
2022-12-13T21:05:27.565Z,7.43
2022-12-13T21:08:35.207Z,12.30
2022-12-13T21:11:33.041Z,10.82
2022-12-13T21:14:28.923Z,10.35
2022-12-13T21:17:16.626Z,10.82
2022-12-13T21:20:04.852Z,12.48
2022-12-13T21:23:01.695Z,7.82
2022-12-13T21:25:51.991Z,9.57
2022-12-13T21:28:39.672Z,12.10
2022-12-13T21:31:29.184Z,11.70
2022-12-13T21:34:18.057Z,10.52
2022-12-13T21:37:06.056Z,7.97
2022-12-13T21:39:53.808Z,10.63
2022-12-13T21:42:41.641Z,10.98
2022-12-13T21:45:29.322Z,11.80
2022-12-13T21:48:17.144Z,11.65
2022-12-13T21:51:06.557Z,17.55
2022-12-13T21:53:54.681Z,17.17
2022-12-13T21:57:00.768Z,19.17
2022-12-13T21:59:48.553Z,17.23
2022-12-13T22:02:36.189Z,15.50
2022-12-13T22:05:23.995Z,11.95
2022-12-13T22:08:11.653Z,14.35
2022-12-13T22:11:20.849Z,13.52
2022-12-13T22:14:09.165Z,12.15
2022-12-13T22:16:59.612Z,15.25
2022-12-13T22:19:59.020Z,10.30
2022-12-13T22:22:48.815Z,11.18
2022-12-13T22:25:39.683Z,13.75
2022-12-13T22:28:29.761Z,10.98
2022-12-13T22:31:37.805Z,11.00
2022-12-13T22:34:30.382Z,8.98
2022-12-13T22:37:52.793Z,7.13
2022-12-13T22:45:37.732Z,13.07
2022-12-13T22:48:26.389Z,10.80
2022-12-13T22:51:17.668Z,9.30
2022-12-13T22:54:05.734Z,9.75
2022-12-13T22:57:00.262Z,11.90
2022-12-13T22:59:58.186Z,9.82
2022-12-13T23:02:47.001Z,8.32
2022-12-13T23:05:34.735Z,9.50
2022-12-13T23:08:22.489Z,9.40
2022-12-13T23:11:30.012Z,13.88
2022-12-13T23:14:20.919Z,12.32
2022-12-13T23:17:10.519Z,10.27
2022-12-13T23:19:58.409Z,8.73
2022-12-13T23:22:46.067Z,9.57
2022-12-13T23:25:34.699Z,8.07
2022-12-13T23:28:23.409Z,8.70
2022-12-13T23:31:12.208Z,7.30
2022-12-13T23:34:00.191Z,9.18
2022-12-13T23:36:47.817Z,9.30
2022-12-13T23:39:35.542Z,8.98
2022-12-13T23:42:23.189Z,10.32
2022-12-13T23:45:11.872Z,10.05
2022-12-13T23:47:59.568Z,7.35
2022-12-13T23:50:47.849Z,10.57
2022-12-13T23:53:35.564Z,10.68
2022-12-13T23:56:23.961Z,9.90
2022-12-13T23:59:12.036Z,10.55
